sensor_id;sensor_type;location;lat;lon;timestamp;P1;durP1;ratioP1;P2;durP2;ratioP2
4766;SDS011;2397;53.576;9.746;2022-10-16T00:00:53;9.90;;;8.83;;
4766;SDS011;2397;53.576;9.746;2022-10-16T00:03:20;9.37;;;8.27;;
4766;SDS011;2397;53.576;9.746;2022-10-16T00:05:51;10.17;;;8.70;;
4766;SDS011;2397;53.576;9.746;2022-10-16T00:08:18;12.00;;;8.37;;
4766;SDS011;2397;53.576;9.746;2022-10-16T00:10:44;9.57;;;8.57;;
4766;SDS011;2397;53.576;9.746;2022-10-16T00:13:11;9.20;;;7.40;;
4766;SDS011;2397;53.576;9.746;2022-10-16T00:15:37;9.93;;;8.70;;
4766;SDS011;2397;53.576;9.746;2022-10-16T00:18:05;11.23;;;7.60;;
4766;SDS011;2397;53.576;9.746;2022-10-16T00:20:35;8.60;;;7.70;;
4766;SDS011;2397;53.576;9.746;2022-10-16T00:23:03;13.70;;;7.37;;
4766;SDS011;2397;53.576;9.746;2022-10-16T00:25:31;7.50;;;6.10;;
4766;SDS011;2397;53.576;9.746;2022-10-16T00:28:02;6.37;;;5.77;;
4766;SDS011;2397;53.576;9.746;2022-10-16T00:30:28;8.73;;;6.07;;
4766;SDS011;2397;53.576;9.746;2022-10-16T00:32:55;6.63;;;5.83;;
4766;SDS011;2397;53.576;9.746;2022-10-16T00:35:21;7.63;;;5.20;;
4766;SDS011;2397;53.576;9.746;2022-10-16T00:37:48;8.80;;;5.93;;
4766;SDS011;2397;53.576;9.746;2022-10-16T00:40:15;8.60;;;4.80;;
4766;SDS011;2397;53.576;9.746;2022-10-16T00:42:41;5.80;;;4.57;;
4766;SDS011;2397;53.576;9.746;2022-10-16T00:45:08;5.80;;;5.00;;
4766;SDS011;2397;53.576;9.746;2022-10-16T00:47:44;5.10;;;4.60;;
4766;SDS011;2397;53.576;9.746;2022-10-16T00:50:18;6.13;;;4.87;;
4766;SDS011;2397;53.576;9.746;2022-10-16T00:52:53;4.20;;;3.90;;
4766;SDS011;2397;53.576;9.746;2022-10-16T00:55:20;5.83;;;4.90;;
4766;SDS011;2397;53.576;9.746;2022-10-16T00:57:48;6.77;;;4.83;;
4766;SDS011;2397;53.576;9.746;2022-10-16T01:00:18;7.90;;;4.67;;
4766;SDS011;2397;53.576;9.746;2022-10-16T01:02:54;6.40;;;4.00;;
4766;SDS011;2397;53.576;9.746;2022-10-16T01:05:23;5.30;;;4.80;;
4766;SDS011;2397;53.576;9.746;2022-10-16T01:07:56;5.80;;;4.57;;
4766;SDS011;2397;53.576;9.746;2022-10-16T01:15:43;3.97;;;3.50;;
4766;SDS011;2397;53.576;9.746;2022-10-16T01:18:22;7.23;;;4.17;;
4766;SDS011;2397;53.576;9.746;2022-10-16T01:21:08;5.67;;;3.97;;
4766;SDS011;2397;53.576;9.746;2022-10-16T01:23:59;8.50;;;3.73;;
4766;SDS011;2397;53.576;9.746;2022-10-16T01:26:37;6.93;;;4.90;;
4766;SDS011;2397;53.576;9.746;2022-10-16T01:32:19;5.47;;;4.23;;
4766;SDS011;2397;53.576;9.746;2022-10-16T01:34:57;5.23;;;3.57;;
4766;SDS011;2397;53.576;9.746;2022-10-16T01:40:12;7.83;;;3.17;;
4766;SDS011;2397;53.576;9.746;2022-10-16T01:42:44;6.50;;;4.17;;
4766;SDS011;2397;53.576;9.746;2022-10-16T01:45:15;4.30;;;3.10;;
4766;SDS011;2397;53.576;9.746;2022-10-16T01:47:44;3.97;;;3.07;;
4766;SDS011;2397;53.576;9.746;2022-10-16T01:50:12;5.60;;;3.17;;
4766;SDS011;2397;53.576;9.746;2022-10-16T01:52:43;3.40;;;3.00;;
4766;SDS011;2397;53.576;9.746;2022-10-16T01:55:14;3.50;;;3.20;;
4766;SDS011;2397;53.576;9.746;2022-10-16T01:57:44;3.13;;;2.87;;
4766;SDS011;2397;53.576;9.746;2022-10-16T02:00:16;9.90;;;3.30;;
4766;SDS011;2397;53.576;9.746;2022-10-16T02:02:45;7.17;;;3.00;;
4766;SDS011;2397;53.576;9.746;2022-10-16T02:07:46;3.60;;;2.80;;
4766;SDS011;2397;53.576;9.746;2022-10-16T02:10:14;3.43;;;2.93;;
4766;SDS011;2397;53.576;9.746;2022-10-16T02:12:42;3.43;;;2.60;;
4766;SDS011;2397;53.576;9.746;2022-10-16T02:15:13;5.83;;;2.87;;
4766;SDS011;2397;53.576;9.746;2022-10-16T02:17:40;4.50;;;2.70;;
4766;SDS011;2397;53.576;9.746;2022-10-16T02:20:06;7.40;;;2.73;;
4766;SDS011;2397;53.576;9.746;2022-10-16T02:22:38;5.70;;;2.70;;
4766;SDS011;2397;53.576;9.746;2022-10-16T02:30:29;3.30;;;2.37;;
4766;SDS011;2397;53.576;9.746;2022-10-16T02:33:00;2.80;;;2.53;;
4766;SDS011;2397;53.576;9.746;2022-10-16T02:35:28;3.20;;;2.20;;
4766;SDS011;2397;53.576;9.746;2022-10-16T02:37:56;4.90;;;2.50;;
4766;SDS011;2397;53.576;9.746;2022-10-16T02:40:24;4.10;;;2.30;;
4766;SDS011;2397;53.576;9.746;2022-10-16T02:42:52;2.63;;;2.23;;
4766;SDS011;2397;53.576;9.746;2022-10-16T02:45:20;2.00;;;1.90;;
4766;SDS011;2397;53.576;9.746;2022-10-16T02:47:47;3.20;;;2.37;;
4766;SDS011;2397;53.576;9.746;2022-10-16T02:50:14;2.87;;;2.20;;
4766;SDS011;2397;53.576;9.746;2022-10-16T02:52:41;5.63;;;2.30;;
4766;SDS011;2397;53.576;9.746;2022-10-16T02:55:08;2.30;;;2.20;;
4766;SDS011;2397;53.576;9.746;2022-10-16T02:57:34;5.93;;;2.63;;
4766;SDS011;2397;53.576;9.746;2022-10-16T03:00:03;4.73;;;2.50;;
4766;SDS011;2397;53.576;9.746;2022-10-16T03:02:30;2.57;;;2.37;;
4766;SDS011;2397;53.576;9.746;2022-10-16T03:04:57;2.27;;;2.07;;
4766;SDS011;2397;53.576;9.746;2022-10-16T03:07:23;3.87;;;2.30;;
4766;SDS011;2397;53.576;9.746;2022-10-16T03:09:50;4.40;;;2.30;;
4766;SDS011;2397;53.576;9.746;2022-10-16T03:12:16;2.40;;;2.20;;
4766;SDS011;2397;53.576;9.746;2022-10-16T03:14:43;4.17;;;2.33;;
4766;SDS011;2397;53.576;9.746;2022-10-16T03:17:09;6.10;;;2.60;;
4766;SDS011;2397;53.576;9.746;2022-10-16T03:19:36;2.50;;;2.30;;
4766;SDS011;2397;53.576;9.746;2022-10-16T03:22:02;4.33;;;2.27;;
4766;SDS011;2397;53.576;9.746;2022-10-16T03:24:28;6.67;;;2.70;;
4766;SDS011;2397;53.576;9.746;2022-10-16T03:26:55;2.53;;;2.20;;
4766;SDS011;2397;53.576;9.746;2022-10-16T03:29:21;3.30;;;2.30;;
4766;SDS011;2397;53.576;9.746;2022-10-16T03:31:47;3.40;;;2.17;;
4766;SDS011;2397;53.576;9.746;2022-10-16T03:34:15;3.23;;;2.33;;
4766;SDS011;2397;53.576;9.746;2022-10-16T03:36:41;5.97;;;2.50;;
4766;SDS011;2397;53.576;9.746;2022-10-16T03:39:08;3.83;;;2.33;;
4766;SDS011;2397;53.576;9.746;2022-10-16T03:41:34;2.47;;;2.27;;
4766;SDS011;2397;53.576;9.746;2022-10-16T03:44:01;3.43;;;2.53;;
4766;SDS011;2397;53.576;9.746;2022-10-16T03:46:27;10.47;;;2.63;;
4766;SDS011;2397;53.576;9.746;2022-10-16T03:48:54;4.90;;;2.70;;
4766;SDS011;2397;53.576;9.746;2022-10-16T03:51:20;5.60;;;2.83;;
4766;SDS011;2397;53.576;9.746;2022-10-16T03:53:46;3.53;;;2.90;;
4766;SDS011;2397;53.576;9.746;2022-10-16T03:56:13;10.03;;;2.60;;
4766;SDS011;2397;53.576;9.746;2022-10-16T03:58:39;3.37;;;3.00;;
4766;SDS011;2397;53.576;9.746;2022-10-16T04:01:06;2.23;;;2.07;;
4766;SDS011;2397;53.576;9.746;2022-10-16T04:03:32;3.50;;;2.57;;
4766;SDS011;2397;53.576;9.746;2022-10-16T04:05:58;3.67;;;2.73;;
4766;SDS011;2397;53.576;9.746;2022-10-16T04:08:25;6.57;;;2.50;;
4766;SDS011;2397;53.576;9.746;2022-10-16T04:10:51;4.87;;;2.50;;
4766;SDS011;2397;53.576;9.746;2022-10-16T04:13:18;4.30;;;2.93;;
4766;SDS011;2397;53.576;9.746;2022-10-16T04:15:45;3.13;;;2.30;;
4766;SDS011;2397;53.576;9.746;2022-10-16T04:18:11;2.70;;;2.50;;
4766;SDS011;2397;53.576;9.746;2022-10-16T04:20:38;4.07;;;2.50;;
4766;SDS011;2397;53.576;9.746;2022-10-16T04:23:05;5.60;;;2.53;;
4766;SDS011;2397;53.576;9.746;2022-10-16T04:25:31;2.73;;;2.20;;
4766;SDS011;2397;53.576;9.746;2022-10-16T04:27:58;4.27;;;2.93;;
4766;SDS011;2397;53.576;9.746;2022-10-16T04:30:24;5.00;;;2.40;;
4766;SDS011;2397;53.576;9.746;2022-10-16T04:32:51;6.23;;;2.93;;
4766;SDS011;2397;53.576;9.746;2022-10-16T04:35:19;2.37;;;2.10;;
4766;SDS011;2397;53.576;9.746;2022-10-16T04:37:46;8.03;;;2.60;;
4766;SDS011;2397;53.576;9.746;2022-10-16T04:40:13;4.37;;;2.57;;
4766;SDS011;2397;53.576;9.746;2022-10-16T04:42:40;4.43;;;2.70;;
4766;SDS011;2397;53.576;9.746;2022-10-16T04:45:07;3.30;;;2.77;;
4766;SDS011;2397;53.576;9.746;2022-10-16T04:47:39;6.97;;;2.70;;
4766;SDS011;2397;53.576;9.746;2022-10-16T04:50:06;3.20;;;2.90;;
4766;SDS011;2397;53.576;9.746;2022-10-16T04:52:33;3.17;;;2.43;;
4766;SDS011;2397;53.576;9.746;2022-10-16T04:55:00;3.00;;;2.70;;
4766;SDS011;2397;53.576;9.746;2022-10-16T04:57:29;3.93;;;2.70;;
4766;SDS011;2397;53.576;9.746;2022-10-16T04:59:56;3.10;;;2.40;;
4766;SDS011;2397;53.576;9.746;2022-10-16T05:02:22;7.30;;;3.03;;
4766;SDS011;2397;53.576;9.746;2022-10-16T05:04:48;3.13;;;2.50;;
4766;SDS011;2397;53.576;9.746;2022-10-16T05:07:15;6.60;;;2.90;;
4766;SDS011;2397;53.576;9.746;2022-10-16T05:09:42;6.00;;;3.67;;
4766;SDS011;2397;53.576;9.746;2022-10-16T05:12:08;4.20;;;3.80;;
4766;SDS011;2397;53.576;9.746;2022-10-16T05:14:34;6.83;;;3.60;;
4766;SDS011;2397;53.576;9.746;2022-10-16T05:17:01;4.37;;;3.67;;
4766;SDS011;2397;53.576;9.746;2022-10-16T05:19:27;6.13;;;3.80;;
4766;SDS011;2397;53.576;9.746;2022-10-16T05:21:54;4.27;;;3.77;;
4766;SDS011;2397;53.576;9.746;2022-10-16T05:24:20;8.07;;;4.10;;
4766;SDS011;2397;53.576;9.746;2022-10-16T05:26:47;4.43;;;4.00;;
4766;SDS011;2397;53.576;9.746;2022-10-16T05:29:13;6.57;;;3.90;;
4766;SDS011;2397;53.576;9.746;2022-10-16T05:31:40;5.73;;;3.90;;
4766;SDS011;2397;53.576;9.746;2022-10-16T05:34:06;6.20;;;3.97;;
4766;SDS011;2397;53.576;9.746;2022-10-16T05:36:33;4.57;;;4.17;;
4766;SDS011;2397;53.576;9.746;2022-10-16T05:39:00;11.33;;;4.67;;
4766;SDS011;2397;53.576;9.746;2022-10-16T05:41:26;5.37;;;4.20;;
4766;SDS011;2397;53.576;9.746;2022-10-16T05:43:53;6.33;;;4.47;;
4766;SDS011;2397;53.576;9.746;2022-10-16T05:46:19;7.13;;;4.90;;
4766;SDS011;2397;53.576;9.746;2022-10-16T05:48:45;6.40;;;4.90;;
4766;SDS011;2397;53.576;9.746;2022-10-16T05:51:12;8.50;;;5.03;;
4766;SDS011;2397;53.576;9.746;2022-10-16T05:53:40;4.80;;;4.30;;
4766;SDS011;2397;53.576;9.746;2022-10-16T05:56:08;5.47;;;4.10;;
4766;SDS011;2397;53.576;9.746;2022-10-16T05:58:36;8.50;;;4.90;;
4766;SDS011;2397;53.576;9.746;2022-10-16T06:01:08;6.43;;;4.93;;
4766;SDS011;2397;53.576;9.746;2022-10-16T06:03:40;8.50;;;4.70;;
4766;SDS011;2397;53.576;9.746;2022-10-16T06:06:14;8.83;;;4.97;;
4766;SDS011;2397;53.576;9.746;2022-10-16T06:08:48;5.23;;;4.50;;
4766;SDS011;2397;53.576;9.746;2022-10-16T06:11:19;5.40;;;4.20;;
4766;SDS011;2397;53.576;9.746;2022-10-16T06:13:51;8.03;;;4.43;;
4766;SDS011;2397;53.576;9.746;2022-10-16T06:16:19;5.00;;;4.53;;
4766;SDS011;2397;53.576;9.746;2022-10-16T06:18:46;5.00;;;4.43;;
4766;SDS011;2397;53.576;9.746;2022-10-16T06:21:16;6.00;;;4.63;;
4766;SDS011;2397;53.576;9.746;2022-10-16T06:23:44;6.03;;;4.20;;
4766;SDS011;2397;53.576;9.746;2022-10-16T06:26:14;7.23;;;5.07;;
4766;SDS011;2397;53.576;9.746;2022-10-16T06:28:43;7.93;;;4.20;;
4766;SDS011;2397;53.576;9.746;2022-10-16T06:31:10;5.00;;;4.50;;
4766;SDS011;2397;53.576;9.746;2022-10-16T06:33:38;5.00;;;4.47;;
4766;SDS011;2397;53.576;9.746;2022-10-16T06:36:06;6.53;;;3.80;;
4766;SDS011;2397;53.576;9.746;2022-10-16T06:38:35;9.60;;;4.50;;
4766;SDS011;2397;53.576;9.746;2022-10-16T06:41:02;6.43;;;4.23;;
4766;SDS011;2397;53.576;9.746;2022-10-16T06:43:29;5.87;;;3.97;;
4766;SDS011;2397;53.576;9.746;2022-10-16T06:46:01;4.53;;;4.13;;
4766;SDS011;2397;53.576;9.746;2022-10-16T06:48:29;5.43;;;4.20;;
4766;SDS011;2397;53.576;9.746;2022-10-16T06:50:56;5.20;;;4.27;;
4766;SDS011;2397;53.576;9.746;2022-10-16T06:53:26;5.67;;;4.60;;
4766;SDS011;2397;53.576;9.746;2022-10-16T06:55:54;6.53;;;4.60;;
4766;SDS011;2397;53.576;9.746;2022-10-16T06:58:21;6.30;;;4.67;;
4766;SDS011;2397;53.576;9.746;2022-10-16T07:00:48;8.13;;;4.20;;
4766;SDS011;2397;53.576;9.746;2022-10-16T07:03:20;4.47;;;4.07;;
4766;SDS011;2397;53.576;9.746;2022-10-16T07:05:47;6.93;;;4.60;;
4766;SDS011;2397;53.576;9.746;2022-10-16T07:08:13;32.20;;;5.27;;
4766;SDS011;2397;53.576;9.746;2022-10-16T07:10:39;5.33;;;4.93;;
4766;SDS011;2397;53.576;9.746;2022-10-16T07:13:06;7.73;;;4.77;;
4766;SDS011;2397;53.576;9.746;2022-10-16T07:15:33;5.90;;;4.60;;
4766;SDS011;2397;53.576;9.746;2022-10-16T07:18:00;6.33;;;5.50;;
4766;SDS011;2397;53.576;9.746;2022-10-16T07:20:26;6.50;;;4.90;;
4766;SDS011;2397;53.576;9.746;2022-10-16T07:22:52;10.33;;;5.67;;
4766;SDS011;2397;53.576;9.746;2022-10-16T07:25:19;6.63;;;5.83;;
4766;SDS011;2397;53.576;9.746;2022-10-16T07:27:45;5.27;;;4.77;;
4766;SDS011;2397;53.576;9.746;2022-10-16T07:30:12;7.07;;;5.50;;
4766;SDS011;2397;53.576;9.746;2022-10-16T07:32:38;8.27;;;5.37;;
4766;SDS011;2397;53.576;9.746;2022-10-16T07:35:05;6.60;;;5.30;;
4766;SDS011;2397;53.576;9.746;2022-10-16T07:37:32;8.60;;;5.10;;
4766;SDS011;2397;53.576;9.746;2022-10-16T07:39:58;6.10;;;4.90;;
4766;SDS011;2397;53.576;9.746;2022-10-16T07:42:24;8.33;;;5.00;;
4766;SDS011;2397;53.576;9.746;2022-10-16T07:44:51;5.80;;;4.80;;
4766;SDS011;2397;53.576;9.746;2022-10-16T07:47:17;7.80;;;4.60;;
4766;SDS011;2397;53.576;9.746;2022-10-16T07:49:44;10.40;;;5.60;;
4766;SDS011;2397;53.576;9.746;2022-10-16T07:52:11;7.73;;;5.40;;
4766;SDS011;2397;53.576;9.746;2022-10-16T07:54:37;6.57;;;4.90;;
4766;SDS011;2397;53.576;9.746;2022-10-16T07:57:03;6.10;;;5.13;;
4766;SDS011;2397;53.576;9.746;2022-10-16T07:59:30;5.60;;;5.10;;
4766;SDS011;2397;53.576;9.746;2022-10-16T08:01:57;6.80;;;4.90;;
4766;SDS011;2397;53.576;9.746;2022-10-16T08:04:23;10.60;;;5.53;;
4766;SDS011;2397;53.576;9.746;2022-10-16T08:06:49;9.53;;;5.30;;
4766;SDS011;2397;53.576;9.746;2022-10-16T08:09:16;5.53;;;5.00;;
4766;SDS011;2397;53.576;9.746;2022-10-16T08:11:42;4.97;;;4.57;;
4766;SDS011;2397;53.576;9.746;2022-10-16T08:14:08;5.07;;;4.67;;
4766;SDS011;2397;53.576;9.746;2022-10-16T08:16:35;5.53;;;5.03;;
4766;SDS011;2397;53.576;9.746;2022-10-16T08:19:01;7.17;;;4.77;;
4766;SDS011;2397;53.576;9.746;2022-10-16T08:21:29;5.00;;;4.50;;
4766;SDS011;2397;53.576;9.746;2022-10-16T08:23:55;8.83;;;4.47;;
4766;SDS011;2397;53.576;9.746;2022-10-16T08:26:23;6.50;;;4.57;;
4766;SDS011;2397;53.576;9.746;2022-10-16T08:28:50;4.23;;;3.90;;
4766;SDS011;2397;53.576;9.746;2022-10-16T08:31:18;7.00;;;4.37;;
4766;SDS011;2397;53.576;9.746;2022-10-16T08:33:44;7.07;;;4.60;;
4766;SDS011;2397;53.576;9.746;2022-10-16T08:36:13;4.73;;;3.97;;
4766;SDS011;2397;53.576;9.746;2022-10-16T08:38:41;4.83;;;4.10;;
4766;SDS011;2397;53.576;9.746;2022-10-16T08:41:21;5.30;;;3.90;;
4766;SDS011;2397;53.576;9.746;2022-10-16T08:44:01;8.63;;;4.40;;
4766;SDS011;2397;53.576;9.746;2022-10-16T08:46:49;4.10;;;3.77;;
4766;SDS011;2397;53.576;9.746;2022-10-16T08:49:28;4.63;;;4.10;;
4766;SDS011;2397;53.576;9.746;2022-10-16T08:51:56;9.93;;;4.33;;
4766;SDS011;2397;53.576;9.746;2022-10-16T08:54:31;5.50;;;3.67;;
4766;SDS011;2397;53.576;9.746;2022-10-16T08:57:11;6.07;;;4.03;;
4766;SDS011;2397;53.576;9.746;2022-10-16T08:59:49;3.60;;;3.40;;
4766;SDS011;2397;53.576;9.746;2022-10-16T09:05:16;5.90;;;3.20;;
4766;SDS011;2397;53.576;9.746;2022-10-16T09:07:49;12.73;;;4.60;;
4766;SDS011;2397;53.576;9.746;2022-10-16T09:19:01;6.47;;;3.47;;
4766;SDS011;2397;53.576;9.746;2022-10-16T09:21:31;4.20;;;2.90;;
4766;SDS011;2397;53.576;9.746;2022-10-16T09:24:07;3.00;;;2.63;;
4766;SDS011;2397;53.576;9.746;2022-10-16T09:26:39;5.40;;;2.60;;
4766;SDS011;2397;53.576;9.746;2022-10-16T09:29:06;3.40;;;3.10;;
4766;SDS011;2397;53.576;9.746;2022-10-16T09:31:32;3.57;;;3.27;;
4766;SDS011;2397;53.576;9.746;2022-10-16T09:34:02;6.93;;;3.33;;
4766;SDS011;2397;53.576;9.746;2022-10-16T09:36:35;3.73;;;2.50;;
4766;SDS011;2397;53.576;9.746;2022-10-16T09:39:09;9.63;;;3.30;;
4766;SDS011;2397;53.576;9.746;2022-10-16T09:41:39;7.27;;;3.23;;
4766;SDS011;2397;53.576;9.746;2022-10-16T09:44:22;2.87;;;2.40;;
4766;SDS011;2397;53.576;9.746;2022-10-16T09:47:04;4.13;;;2.73;;
4766;SDS011;2397;53.576;9.746;2022-10-16T09:49:32;7.00;;;2.93;;
4766;SDS011;2397;53.576;9.746;2022-10-16T09:52:05;2.90;;;2.57;;
4766;SDS011;2397;53.576;9.746;2022-10-16T09:54:37;5.33;;;2.80;;
4766;SDS011;2397;53.576;9.746;2022-10-16T09:57:04;4.87;;;2.90;;
4766;SDS011;2397;53.576;9.746;2022-10-16T09:59:45;5.63;;;2.43;;
4766;SDS011;2397;53.576;9.746;2022-10-16T10:02:17;5.43;;;2.23;;
4766;SDS011;2397;53.576;9.746;2022-10-16T10:04:50;4.33;;;2.20;;
4766;SDS011;2397;53.576;9.746;2022-10-16T10:07:21;4.80;;;2.43;;
4766;SDS011;2397;53.576;9.746;2022-10-16T10:09:53;3.00;;;2.60;;
4766;SDS011;2397;53.576;9.746;2022-10-16T10:14:55;4.57;;;3.40;;
4766;SDS011;2397;53.576;9.746;2022-10-16T10:17:24;3.30;;;2.17;;
4766;SDS011;2397;53.576;9.746;2022-10-16T10:22:47;5.27;;;2.90;;
4766;SDS011;2397;53.576;9.746;2022-10-16T10:27:49;8.93;;;2.23;;
4766;SDS011;2397;53.576;9.746;2022-10-16T10:38:47;6.13;;;2.30;;
4766;SDS011;2397;53.576;9.746;2022-10-16T10:44:47;3.10;;;2.27;;
4766;SDS011;2397;53.576;9.746;2022-10-16T10:47:38;4.20;;;2.20;;
4766;SDS011;2397;53.576;9.746;2022-10-16T10:58:24;5.80;;;1.93;;
4766;SDS011;2397;53.576;9.746;2022-10-16T11:01:08;3.23;;;2.40;;
4766;SDS011;2397;53.576;9.746;2022-10-16T11:06:57;2.23;;;2.03;;
4766;SDS011;2397;53.576;9.746;2022-10-16T11:09:30;6.37;;;1.87;;
4766;SDS011;2397;53.576;9.746;2022-10-16T11:12:07;5.87;;;1.80;;
4766;SDS011;2397;53.576;9.746;2022-10-16T11:14:46;7.13;;;2.03;;
4766;SDS011;2397;53.576;9.746;2022-10-16T11:20:02;4.23;;;1.73;;
4766;SDS011;2397;53.576;9.746;2022-10-16T11:25:29;6.50;;;1.63;;
4766;SDS011;2397;53.576;9.746;2022-10-16T11:30:47;7.67;;;1.77;;
4766;SDS011;2397;53.576;9.746;2022-10-16T11:38:44;6.53;;;2.10;;
4766;SDS011;2397;53.576;9.746;2022-10-16T11:41:26;4.50;;;1.73;;
4766;SDS011;2397;53.576;9.746;2022-10-16T11:46:51;6.50;;;2.17;;
4766;SDS011;2397;53.576;9.746;2022-10-16T11:49:46;2.90;;;1.87;;
4766;SDS011;2397;53.576;9.746;2022-10-16T11:52:17;1.93;;;1.70;;
4766;SDS011;2397;53.576;9.746;2022-10-16T11:54:56;2.40;;;1.57;;
4766;SDS011;2397;53.576;9.746;2022-10-16T11:57:30;3.67;;;2.00;;
4766;SDS011;2397;53.576;9.746;2022-10-16T12:05:22;6.30;;;2.50;;
4766;SDS011;2397;53.576;9.746;2022-10-16T12:07:59;4.33;;;1.87;;
4766;SDS011;2397;53.576;9.746;2022-10-16T12:10:37;4.13;;;2.20;;
4766;SDS011;2397;53.576;9.746;2022-10-16T12:16:07;4.60;;;1.90;;
4766;SDS011;2397;53.576;9.746;2022-10-16T12:18:46;2.17;;;1.77;;
4766;SDS011;2397;53.576;9.746;2022-10-16T12:21:14;9.57;;;1.70;;
4766;SDS011;2397;53.576;9.746;2022-10-16T12:23:53;5.80;;;1.93;;
4766;SDS011;2397;53.576;9.746;2022-10-16T12:26:27;2.47;;;1.50;;
4766;SDS011;2397;53.576;9.746;2022-10-16T12:28:56;3.30;;;1.40;;
4766;SDS011;2397;53.576;9.746;2022-10-16T12:31:37;6.03;;;2.07;;
4766;SDS011;2397;53.576;9.746;2022-10-16T12:34:32;7.50;;;2.00;;
4766;SDS011;2397;53.576;9.746;2022-10-16T12:37:13;4.30;;;1.87;;
4766;SDS011;2397;53.576;9.746;2022-10-16T12:39:40;2.53;;;1.50;;
4766;SDS011;2397;53.576;9.746;2022-10-16T12:42:21;3.67;;;1.70;;
4766;SDS011;2397;53.576;9.746;2022-10-16T12:44:54;6.80;;;2.20;;
4766;SDS011;2397;53.576;9.746;2022-10-16T12:47:35;5.13;;;1.93;;
4766;SDS011;2397;53.576;9.746;2022-10-16T12:50:03;3.70;;;1.30;;
4766;SDS011;2397;53.576;9.746;2022-10-16T12:53:00;4.33;;;1.97;;
4766;SDS011;2397;53.576;9.746;2022-10-16T12:55:32;5.37;;;2.50;;
4766;SDS011;2397;53.576;9.746;2022-10-16T12:58:21;5.50;;;1.33;;
4766;SDS011;2397;53.576;9.746;2022-10-16T13:01:08;2.70;;;1.40;;
4766;SDS011;2397;53.576;9.746;2022-10-16T13:06:42;6.80;;;2.10;;
4766;SDS011;2397;53.576;9.746;2022-10-16T13:12:22;6.00;;;1.97;;
4766;SDS011;2397;53.576;9.746;2022-10-16T13:14:54;4.03;;;1.80;;
4766;SDS011;2397;53.576;9.746;2022-10-16T13:23:15;6.47;;;2.37;;
4766;SDS011;2397;53.576;9.746;2022-10-16T13:26:08;5.10;;;2.27;;
4766;SDS011;2397;53.576;9.746;2022-10-16T13:28:43;2.67;;;1.53;;
4766;SDS011;2397;53.576;9.746;2022-10-16T13:31:13;2.27;;;1.50;;
4766;SDS011;2397;53.576;9.746;2022-10-16T13:33:48;2.03;;;1.40;;
4766;SDS011;2397;53.576;9.746;2022-10-16T13:36:21;4.53;;;1.90;;
4766;SDS011;2397;53.576;9.746;2022-10-16T13:38:59;4.53;;;1.80;;
4766;SDS011;2397;53.576;9.746;2022-10-16T13:41:30;4.30;;;1.40;;
4766;SDS011;2397;53.576;9.746;2022-10-16T13:43:57;6.13;;;1.60;;
4766;SDS011;2397;53.576;9.746;2022-10-16T13:46:24;4.83;;;1.67;;
4766;SDS011;2397;53.576;9.746;2022-10-16T13:49:01;3.27;;;1.63;;
4766;SDS011;2397;53.576;9.746;2022-10-16T13:51:30;2.70;;;1.30;;
4766;SDS011;2397;53.576;9.746;2022-10-16T13:53:58;3.77;;;2.57;;
4766;SDS011;2397;53.576;9.746;2022-10-16T13:56:26;2.77;;;1.80;;
4766;SDS011;2397;53.576;9.746;2022-10-16T13:58:58;3.87;;;1.87;;
4766;SDS011;2397;53.576;9.746;2022-10-16T14:01:27;2.90;;;2.03;;
4766;SDS011;2397;53.576;9.746;2022-10-16T14:04:02;3.60;;;2.10;;
4766;SDS011;2397;53.576;9.746;2022-10-16T14:06:32;2.80;;;1.90;;
4766;SDS011;2397;53.576;9.746;2022-10-16T14:09:05;4.00;;;2.50;;
4766;SDS011;2397;53.576;9.746;2022-10-16T14:11:36;6.53;;;2.67;;
4766;SDS011;2397;53.576;9.746;2022-10-16T14:14:11;3.70;;;1.93;;
4766;SDS011;2397;53.576;9.746;2022-10-16T14:16:40;3.00;;;2.20;;
4766;SDS011;2397;53.576;9.746;2022-10-16T14:19:18;5.23;;;1.97;;
4766;SDS011;2397;53.576;9.746;2022-10-16T14:21:48;4.90;;;1.77;;
4766;SDS011;2397;53.576;9.746;2022-10-16T14:24:32;3.00;;;1.70;;
4766;SDS011;2397;53.576;9.746;2022-10-16T14:27:00;3.97;;;1.90;;
4766;SDS011;2397;53.576;9.746;2022-10-16T14:29:28;4.27;;;2.00;;
4766;SDS011;2397;53.576;9.746;2022-10-16T14:31:59;2.33;;;1.60;;
4766;SDS011;2397;53.576;9.746;2022-10-16T14:37:24;4.40;;;1.50;;
4766;SDS011;2397;53.576;9.746;2022-10-16T14:39:53;2.60;;;1.40;;
4766;SDS011;2397;53.576;9.746;2022-10-16T14:42:21;6.23;;;1.80;;
4766;SDS011;2397;53.576;9.746;2022-10-16T14:44:51;2.63;;;1.63;;
4766;SDS011;2397;53.576;9.746;2022-10-16T14:47:20;3.60;;;1.77;;
4766;SDS011;2397;53.576;9.746;2022-10-16T14:49:52;5.57;;;1.87;;
4766;SDS011;2397;53.576;9.746;2022-10-16T14:52:21;6.37;;;1.90;;
4766;SDS011;2397;53.576;9.746;2022-10-16T14:54:49;3.37;;;1.50;;
4766;SDS011;2397;53.576;9.746;2022-10-16T14:57:19;4.10;;;1.70;;
4766;SDS011;2397;53.576;9.746;2022-10-16T14:59:49;4.00;;;1.43;;
4766;SDS011;2397;53.576;9.746;2022-10-16T15:02:32;3.90;;;2.00;;
4766;SDS011;2397;53.576;9.746;2022-10-16T15:05:10;3.90;;;1.73;;
4766;SDS011;2397;53.576;9.746;2022-10-16T15:07:42;3.63;;;1.80;;
4766;SDS011;2397;53.576;9.746;2022-10-16T15:10:09;3.10;;;1.53;;
4766;SDS011;2397;53.576;9.746;2022-10-16T15:12:36;3.40;;;1.70;;
4766;SDS011;2397;53.576;9.746;2022-10-16T15:15:11;6.20;;;2.13;;
4766;SDS011;2397;53.576;9.746;2022-10-16T15:17:50;8.53;;;2.30;;
4766;SDS011;2397;53.576;9.746;2022-10-16T15:20:26;5.90;;;2.47;;
4766;SDS011;2397;53.576;9.746;2022-10-16T15:22:53;9.50;;;2.50;;
4766;SDS011;2397;53.576;9.746;2022-10-16T15:28:09;6.30;;;1.80;;
4766;SDS011;2397;53.576;9.746;2022-10-16T15:30:37;3.00;;;1.90;;
4766;SDS011;2397;53.576;9.746;2022-10-16T15:33:04;5.30;;;1.70;;
4766;SDS011;2397;53.576;9.746;2022-10-16T15:35:31;4.10;;;1.70;;
4766;SDS011;2397;53.576;9.746;2022-10-16T15:37:58;3.90;;;1.97;;
4766;SDS011;2397;53.576;9.746;2022-10-16T15:40:24;5.67;;;2.20;;
4766;SDS011;2397;53.576;9.746;2022-10-16T15:42:51;7.27;;;2.83;;
4766;SDS011;2397;53.576;9.746;2022-10-16T15:45:17;5.53;;;2.03;;
4766;SDS011;2397;53.576;9.746;2022-10-16T15:47:45;3.80;;;1.97;;
4766;SDS011;2397;53.576;9.746;2022-10-16T15:50:12;10.10;;;2.40;;
4766;SDS011;2397;53.576;9.746;2022-10-16T15:52:41;6.50;;;2.20;;
4766;SDS011;2397;53.576;9.746;2022-10-16T15:55:08;6.40;;;1.80;;
4766;SDS011;2397;53.576;9.746;2022-10-16T15:57:36;3.47;;;1.67;;
4766;SDS011;2397;53.576;9.746;2022-10-16T16:00:05;4.40;;;1.87;;
4766;SDS011;2397;53.576;9.746;2022-10-16T16:02:36;3.90;;;1.97;;
4766;SDS011;2397;53.576;9.746;2022-10-16T16:05:02;6.00;;;2.37;;
4766;SDS011;2397;53.576;9.746;2022-10-16T16:07:36;3.70;;;2.67;;
4766;SDS011;2397;53.576;9.746;2022-10-16T16:10:05;7.90;;;2.10;;
4766;SDS011;2397;53.576;9.746;2022-10-16T16:12:32;10.17;;;3.60;;
4766;SDS011;2397;53.576;9.746;2022-10-16T16:14:59;7.27;;;2.33;;
4766;SDS011;2397;53.576;9.746;2022-10-16T16:17:31;2.07;;;1.50;;
4766;SDS011;2397;53.576;9.746;2022-10-16T16:19:58;3.23;;;2.13;;
4766;SDS011;2397;53.576;9.746;2022-10-16T16:22:25;10.83;;;2.27;;
4766;SDS011;2397;53.576;9.746;2022-10-16T16:24:53;7.60;;;2.03;;
4766;SDS011;2397;53.576;9.746;2022-10-16T16:27:19;5.30;;;2.07;;
4766;SDS011;2397;53.576;9.746;2022-10-16T16:29:47;4.40;;;2.23;;
4766;SDS011;2397;53.576;9.746;2022-10-16T16:32:13;3.30;;;1.70;;
4766;SDS011;2397;53.576;9.746;2022-10-16T16:34:40;9.10;;;2.47;;
4766;SDS011;2397;53.576;9.746;2022-10-16T16:37:06;5.37;;;1.90;;
4766;SDS011;2397;53.576;9.746;2022-10-16T16:39:32;4.70;;;2.23;;
4766;SDS011;2397;53.576;9.746;2022-10-16T16:41:59;9.60;;;1.80;;
4766;SDS011;2397;53.576;9.746;2022-10-16T16:44:25;6.83;;;1.80;;
4766;SDS011;2397;53.576;9.746;2022-10-16T16:46:52;4.50;;;2.20;;
4766;SDS011;2397;53.576;9.746;2022-10-16T16:49:19;8.30;;;2.10;;
4766;SDS011;2397;53.576;9.746;2022-10-16T16:51:45;6.60;;;2.13;;
4766;SDS011;2397;53.576;9.746;2022-10-16T16:54:12;6.10;;;2.53;;
4766;SDS011;2397;53.576;9.746;2022-10-16T16:56:39;8.00;;;1.90;;
4766;SDS011;2397;53.576;9.746;2022-10-16T16:59:10;6.50;;;2.20;;
4766;SDS011;2397;53.576;9.746;2022-10-16T17:01:40;3.93;;;2.03;;
4766;SDS011;2397;53.576;9.746;2022-10-16T17:04:06;4.10;;;2.13;;
4766;SDS011;2397;53.576;9.746;2022-10-16T17:06:33;4.37;;;1.80;;
4766;SDS011;2397;53.576;9.746;2022-10-16T17:09:03;3.20;;;1.80;;
4766;SDS011;2397;53.576;9.746;2022-10-16T17:11:31;7.20;;;3.17;;
4766;SDS011;2397;53.576;9.746;2022-10-16T17:14:00;4.13;;;1.90;;
4766;SDS011;2397;53.576;9.746;2022-10-16T17:16:29;3.67;;;2.47;;